createdAt,value
2024-02-03T00:00:35.540Z,4.50
2024-02-03T00:03:02.970Z,4.50
2024-02-03T00:05:29.766Z,4.50
2024-02-03T00:07:56.504Z,4.40
2024-02-03T00:10:23.239Z,4.40
2024-02-03T00:12:50.086Z,4.40
2024-02-03T00:15:17.635Z,4.30
2024-02-03T00:17:44.575Z,4.30
2024-02-03T00:20:12.115Z,4.20
2024-02-03T00:22:38.837Z,4.20
2024-02-03T00:25:05.667Z,4.10
2024-02-03T00:27:32.474Z,4.10
2024-02-03T00:29:59.245Z,4.10
2024-02-03T00:32:26.060Z,4.10
2024-02-03T00:34:53.010Z,4.10
2024-02-03T00:37:19.752Z,4.00
2024-02-03T00:39:46.619Z,4.00
2024-02-03T00:42:13.517Z,4.00
2024-02-03T00:44:40.328Z,4.60
2024-02-03T00:47:07.809Z,4.00
2024-02-03T00:49:34.729Z,4.00
2024-02-03T00:52:01.706Z,4.00
2024-02-03T00:54:28.479Z,4.00
2024-02-03T00:56:55.516Z,4.00
2024-02-03T00:59:22.344Z,4.00
2024-02-03T01:01:49.162Z,3.90
2024-02-03T01:04:16.138Z,5.00
2024-02-03T01:06:42.948Z,3.90
2024-02-03T01:09:09.866Z,3.90
2024-02-03T01:11:36.805Z,3.90
2024-02-03T01:14:03.662Z,3.80
2024-02-03T01:16:30.575Z,3.80
2024-02-03T01:18:57.344Z,3.80
2024-02-03T01:21:24.188Z,3.80
2024-02-03T01:23:50.995Z,3.80
2024-02-03T01:26:18.266Z,3.70
2024-02-03T01:28:45.012Z,3.70
2024-02-03T01:31:11.828Z,3.70
2024-02-03T01:33:38.714Z,3.70
2024-02-03T01:36:06.184Z,3.60
2024-02-03T01:38:33.001Z,3.60
2024-02-03T01:40:59.712Z,3.60
2024-02-03T01:43:26.425Z,3.60
2024-02-03T01:45:53.340Z,3.60
2024-02-03T01:48:20.971Z,3.60
2024-02-03T01:50:53.606Z,3.70
2024-02-03T01:53:22.173Z,3.70
2024-02-03T01:55:50.398Z,3.70
2024-02-03T01:58:17.221Z,3.70
2024-02-03T02:00:44.126Z,3.70
2024-02-03T02:03:11.091Z,3.80
2024-02-03T02:05:38.020Z,3.80
2024-02-03T02:08:05.153Z,3.80
2024-02-03T02:10:32.306Z,3.80
2024-02-03T02:12:59.121Z,3.80
2024-02-03T02:15:26.973Z,3.80
2024-02-03T02:18:01.003Z,3.80
2024-02-03T02:20:28.728Z,3.80
2024-02-03T02:22:55.473Z,3.80
2024-02-03T02:25:22.188Z,3.70
2024-02-03T02:27:51.800Z,3.70
2024-02-03T02:30:20.522Z,3.70
2024-02-03T02:32:47.443Z,3.60
2024-02-03T02:35:14.340Z,3.60
2024-02-03T02:37:41.211Z,3.60
2024-02-03T02:40:09.754Z,3.60
2024-02-03T02:42:36.522Z,3.50
2024-02-03T02:45:03.541Z,3.50
2024-02-03T02:47:30.344Z,3.50
2024-02-03T02:49:57.241Z,3.50
2024-02-03T02:52:24.139Z,3.40
2024-02-03T02:54:51.056Z,3.40
2024-02-03T02:57:17.942Z,3.40
2024-02-03T02:59:44.745Z,3.40
2024-02-03T03:02:11.492Z,3.30
2024-02-03T03:04:38.502Z,3.30
2024-02-03T03:07:05.521Z,3.30
2024-02-03T03:09:32.629Z,3.30
2024-02-03T03:11:59.438Z,3.30
2024-02-03T03:14:26.247Z,3.20
2024-02-03T03:16:53.372Z,3.20
2024-02-03T03:19:20.319Z,3.10
2024-02-03T03:21:47.294Z,3.10
2024-02-03T03:24:14.347Z,3.00
2024-02-03T03:26:44.881Z,2.90
2024-02-03T03:29:16.271Z,2.80
2024-02-03T03:31:43.953Z,2.80
2024-02-03T03:34:11.420Z,2.70
2024-02-03T03:36:38.559Z,2.70
2024-02-03T03:39:05.493Z,2.70
2024-02-03T03:41:32.235Z,2.70
2024-02-03T03:43:59.007Z,2.60
2024-02-03T03:46:25.795Z,2.60
2024-02-03T03:48:52.754Z,2.60
2024-02-03T03:51:19.996Z,2.50
2024-02-03T03:53:46.869Z,2.50
2024-02-03T03:56:13.694Z,2.40
2024-02-03T03:58:40.502Z,2.40
2024-02-03T04:01:10.931Z,2.30
2024-02-03T04:03:38.088Z,2.30
2024-02-03T04:06:05.526Z,2.20
2024-02-03T04:08:32.606Z,2.10
2024-02-03T04:10:59.387Z,2.10
2024-02-03T04:13:26.523Z,2.00
2024-02-03T04:15:54.670Z,2.00
2024-02-03T04:18:21.791Z,2.00
2024-02-03T04:20:48.709Z,2.00
2024-02-03T04:23:15.556Z,2.00
2024-02-03T04:25:42.402Z,2.00
2024-02-03T04:28:09.293Z,1.90
2024-02-03T04:30:36.131Z,1.90
2024-02-03T04:33:03.088Z,1.90
2024-02-03T04:35:32.158Z,1.90
2024-02-03T04:38:04.067Z,1.90
2024-02-03T04:40:31.228Z,1.90
2024-02-03T04:42:58.134Z,1.90
2024-02-03T04:45:25.005Z,1.90
2024-02-03T04:47:51.991Z,1.80
2024-02-03T04:50:18.953Z,1.80
2024-02-03T04:52:45.848Z,1.80
2024-02-03T04:55:12.649Z,1.90
2024-02-03T04:57:39.640Z,0.70
2024-02-03T05:00:07.357Z,1.80
2024-02-03T05:02:34.422Z,1.80
2024-02-03T05:05:01.241Z,1.70
2024-02-03T05:07:28.062Z,1.70
2024-02-03T05:09:54.985Z,1.70
2024-02-03T05:12:21.967Z,1.70
2024-02-03T05:14:48.841Z,1.70
2024-02-03T05:17:16.687Z,1.70
2024-02-03T05:19:43.581Z,1.70
2024-02-03T05:22:10.433Z,1.70
2024-02-03T05:24:37.635Z,1.70
2024-02-03T05:27:04.510Z,1.80
2024-02-03T05:29:31.378Z,1.80
2024-02-03T05:31:58.244Z,1.80
2024-02-03T05:34:25.197Z,1.90
2024-02-03T05:36:52.192Z,1.80
2024-02-03T05:39:19.212Z,1.80
2024-02-03T05:41:46.098Z,1.80
2024-02-03T05:44:13.153Z,1.90
2024-02-03T05:46:39.874Z,1.80
2024-02-03T05:49:06.801Z,1.80
2024-02-03T05:51:33.716Z,1.80
2024-02-03T05:54:00.567Z,1.80
2024-02-03T05:56:27.473Z,1.80
2024-02-03T05:59:07.550Z,1.80
2024-02-03T06:01:41.219Z,1.80
2024-02-03T06:04:09.582Z,1.80
2024-02-03T06:06:36.886Z,1.80
2024-02-03T06:09:04.456Z,1.80
2024-02-03T06:11:32.124Z,1.80
2024-02-03T06:13:58.963Z,1.80
2024-02-03T06:16:25.775Z,1.80
2024-02-03T06:18:52.657Z,1.70
2024-02-03T06:21:19.655Z,1.80
2024-02-03T06:23:46.544Z,1.70
2024-02-03T06:26:13.479Z,1.70
2024-02-03T06:28:40.292Z,1.70
2024-02-03T06:31:07.065Z,1.70
2024-02-03T06:33:34.129Z,1.70
2024-02-03T06:36:02.133Z,1.70
2024-02-03T06:38:29.835Z,1.60
2024-02-03T06:40:57.052Z,1.60
2024-02-03T06:43:23.889Z,1.60
2024-02-03T06:45:50.797Z,1.50
2024-02-03T06:48:17.963Z,1.50
2024-02-03T06:50:45.000Z,1.40
2024-02-03T06:53:11.786Z,1.40
2024-02-03T06:55:38.596Z,1.30
2024-02-03T06:58:05.571Z,1.20
2024-02-03T07:00:32.416Z,1.10
2024-02-03T07:02:59.365Z,1.00
2024-02-03T07:05:26.293Z,1.00
2024-02-03T07:07:54.372Z,1.00
2024-02-03T07:10:21.254Z,1.00
2024-02-03T07:12:48.229Z,1.00
2024-02-03T07:15:15.105Z,1.00
2024-02-03T07:17:41.984Z,1.00
2024-02-03T07:20:10.008Z,1.00
2024-02-03T07:22:36.861Z,1.10
2024-02-03T07:25:05.012Z,1.10
2024-02-03T07:27:31.862Z,1.10
2024-02-03T07:29:58.656Z,1.10
2024-02-03T07:32:25.502Z,1.20
2024-02-03T07:34:52.338Z,1.20
2024-02-03T07:37:19.565Z,1.20
2024-02-03T07:39:46.494Z,1.30
2024-02-03T07:42:13.350Z,1.30
2024-02-03T07:44:40.120Z,1.30
2024-02-03T07:47:06.985Z,1.40
2024-02-03T07:49:33.815Z,1.70
2024-02-03T07:52:02.816Z,2.20
2024-02-03T07:54:31.172Z,2.70
2024-02-03T07:56:58.017Z,3.40
2024-02-03T07:59:24.851Z,4.00
2024-02-03T08:01:51.625Z,4.50
2024-02-03T08:04:18.811Z,5.00
2024-02-03T08:06:45.817Z,5.40
2024-02-03T08:09:12.804Z,5.90
2024-02-03T08:11:39.591Z,6.30
2024-02-03T08:14:06.525Z,6.70
2024-02-03T08:16:33.317Z,7.20
2024-02-03T08:19:00.190Z,7.70
2024-02-03T08:21:27.225Z,8.20
2024-02-03T08:23:54.027Z,8.60
2024-02-03T08:26:20.861Z,8.90
2024-02-03T08:28:47.768Z,9.10
2024-02-03T08:31:14.648Z,9.00
2024-02-03T08:33:41.950Z,8.90
2024-02-03T08:36:09.952Z,8.80
2024-02-03T08:38:37.587Z,8.90
2024-02-03T08:41:05.174Z,8.80
2024-02-03T08:43:32.338Z,8.40
2024-02-03T08:45:59.200Z,8.10
2024-02-03T08:48:26.330Z,7.70
2024-02-03T08:50:53.314Z,7.50
2024-02-03T08:53:20.072Z,7.30
2024-02-03T08:55:47.675Z,7.00
2024-02-03T08:58:14.487Z,6.90
2024-02-03T09:00:41.603Z,6.70
2024-02-03T09:03:08.635Z,6.60
2024-02-03T09:05:35.649Z,7.90
2024-02-03T09:08:02.505Z,6.10
2024-02-03T09:10:29.311Z,6.00
2024-02-03T09:12:56.144Z,5.80
2024-02-03T09:15:23.007Z,5.80
2024-02-03T09:17:51.537Z,5.80
2024-02-03T09:20:18.611Z,5.90
2024-02-03T09:22:45.702Z,5.90
2024-02-03T09:25:13.743Z,6.00
2024-02-03T09:27:41.335Z,6.10
2024-02-03T09:30:09.947Z,6.10
2024-02-03T09:32:36.853Z,6.10
2024-02-03T09:35:03.859Z,6.10
2024-02-03T09:40:01.057Z,6.20
2024-02-03T09:42:28.224Z,6.20
2024-02-03T09:44:55.518Z,6.20
2024-02-03T09:47:22.593Z,6.30
2024-02-03T09:49:49.744Z,6.30
2024-02-03T09:52:18.212Z,6.30
2024-02-03T09:54:48.558Z,6.30
2024-02-03T09:57:16.019Z,6.40
2024-02-03T09:59:43.128Z,6.40
2024-02-03T10:02:09.999Z,6.40
2024-02-03T10:04:40.629Z,7.30
2024-02-03T10:07:08.019Z,6.60
2024-02-03T10:12:05.387Z,6.70
2024-02-03T10:14:32.161Z,6.80
2024-02-03T10:16:59.222Z,6.80
2024-02-03T10:19:26.134Z,6.90
2024-02-03T10:21:54.417Z,7.00
2024-02-03T10:24:27.406Z,7.10
2024-02-03T10:27:05.387Z,7.10
2024-02-03T10:29:33.675Z,7.20
2024-02-03T10:32:00.887Z,7.20
2024-02-03T10:34:28.100Z,7.30
2024-02-03T10:36:55.237Z,7.40
2024-02-03T10:39:22.299Z,7.50
2024-02-03T10:41:50.573Z,7.60
2024-02-03T10:44:24.383Z,7.70
2024-02-03T10:46:58.737Z,7.70
2024-02-03T10:49:33.721Z,7.80
2024-02-03T10:52:07.540Z,7.90
2024-02-03T10:54:35.747Z,8.00
2024-02-03T10:57:05.499Z,8.00
2024-02-03T10:59:33.375Z,8.10
2024-02-03T11:02:00.247Z,8.10
2024-02-03T11:04:27.238Z,8.10
2024-02-03T11:07:00.114Z,8.20
2024-02-03T11:09:30.883Z,8.20
2024-02-03T11:11:58.446Z,8.20
2024-02-03T11:14:28.304Z,8.20
2024-02-03T11:17:04.873Z,8.20
2024-02-03T11:19:33.334Z,8.20
2024-02-03T11:22:02.468Z,8.20
2024-02-03T11:24:30.008Z,8.20
2024-02-03T11:27:04.403Z,8.20
2024-02-03T11:29:31.955Z,8.30
2024-02-03T11:32:04.147Z,8.40
2024-02-03T11:34:33.682Z,8.50
2024-02-03T11:37:01.025Z,8.50
2024-02-03T11:39:35.967Z,8.50
2024-02-03T11:42:04.233Z,8.60
2024-02-03T11:44:49.072Z,8.60
2024-02-03T11:47:20.215Z,8.70
2024-02-03T11:49:48.105Z,8.80
2024-02-03T11:52:15.054Z,8.80
2024-02-03T11:54:42.279Z,8.70
2024-02-03T11:57:09.810Z,9.70
2024-02-03T11:59:37.193Z,8.90
2024-02-03T12:02:05.364Z,8.90
2024-02-03T12:04:33.270Z,9.00
2024-02-03T12:07:00.689Z,9.10
2024-02-03T12:09:28.000Z,9.10
2024-02-03T12:11:55.940Z,9.20
2024-02-03T12:14:23.349Z,9.20
2024-02-03T12:16:50.725Z,9.20
2024-02-03T12:19:18.050Z,9.30
2024-02-03T12:21:45.697Z,9.30
2024-02-03T12:24:13.194Z,9.40
2024-02-03T12:26:41.615Z,9.40
2024-02-03T12:29:08.755Z,9.40
2024-02-03T12:31:36.213Z,9.50
2024-02-03T12:34:03.132Z,9.50
2024-02-03T12:36:30.096Z,9.40
2024-02-03T12:38:58.964Z,9.50
2024-02-03T12:41:28.597Z,9.50
2024-02-03T12:43:55.575Z,9.50
2024-02-03T12:46:24.302Z,9.60
2024-02-03T12:48:52.402Z,9.60
2024-02-03T12:51:19.825Z,9.60
2024-02-03T12:53:47.548Z,9.60
2024-02-03T12:56:14.843Z,9.60
2024-02-03T12:58:42.115Z,9.60
2024-02-03T13:01:09.582Z,9.60
2024-02-03T13:03:37.453Z,9.50
2024-02-03T13:06:04.844Z,9.50
2024-02-03T13:08:32.094Z,9.50
2024-02-03T13:10:58.940Z,10.00
2024-02-03T13:13:26.066Z,9.50
2024-02-03T13:15:53.085Z,9.50
2024-02-03T13:18:20.220Z,9.50
2024-02-03T13:20:47.080Z,9.50
2024-02-03T13:23:13.943Z,9.50
2024-02-03T13:25:41.225Z,9.50
2024-02-03T13:28:09.381Z,9.50
2024-02-03T13:30:36.581Z,9.40
2024-02-03T13:33:04.017Z,9.50
2024-02-03T13:35:32.133Z,9.50
2024-02-03T13:37:59.740Z,9.40
2024-02-03T13:40:27.532Z,9.30
2024-02-03T13:42:54.761Z,9.30
2024-02-03T13:45:21.773Z,9.20
2024-02-03T13:47:51.348Z,9.30
2024-02-03T13:50:19.884Z,9.20
2024-02-03T13:52:47.262Z,9.10
2024-02-03T13:55:14.607Z,9.20
2024-02-03T13:57:41.711Z,9.20
2024-02-03T14:00:10.839Z,9.10
2024-02-03T14:02:38.825Z,9.10
2024-02-03T14:05:06.482Z,9.10
2024-02-03T14:07:33.957Z,9.10
2024-02-03T14:10:01.566Z,9.10
2024-02-03T14:12:28.588Z,9.10
2024-02-03T14:14:55.512Z,9.10
2024-02-03T14:17:22.338Z,9.10
2024-02-03T14:19:49.378Z,9.10
2024-02-03T14:22:16.591Z,9.20
2024-02-03T14:24:43.534Z,9.10
2024-02-03T14:27:10.468Z,9.10
2024-02-03T14:29:37.732Z,9.00
2024-02-03T14:32:05.712Z,9.00
2024-02-03T14:34:32.805Z,9.00
2024-02-03T14:37:00.352Z,8.90
2024-02-03T14:39:27.810Z,8.70
2024-02-03T14:41:55.254Z,8.70
2024-02-03T14:44:24.487Z,8.60
2024-02-03T14:46:51.548Z,8.60
2024-02-03T14:49:19.146Z,8.60
2024-02-03T14:51:46.980Z,8.50
2024-02-03T14:54:14.346Z,8.40
2024-02-03T14:56:41.945Z,8.40
2024-02-03T14:59:08.926Z,8.30
2024-02-03T15:01:35.925Z,8.20
2024-02-03T15:04:07.633Z,8.20
2024-02-03T15:06:35.098Z,8.30
2024-02-03T15:09:02.395Z,8.10
2024-02-03T15:11:30.227Z,8.10
2024-02-03T15:13:57.000Z,8.10
2024-02-03T15:16:23.727Z,8.10
2024-02-03T15:18:50.591Z,8.00
2024-02-03T15:21:17.776Z,8.00
2024-02-03T15:23:44.640Z,7.90
2024-02-03T15:26:11.527Z,7.80
2024-02-03T15:28:38.308Z,7.80
2024-02-03T15:31:06.320Z,7.70
2024-02-03T15:33:36.472Z,7.50
2024-02-03T15:36:06.344Z,7.50
2024-02-03T15:38:33.172Z,7.40
2024-02-03T15:41:00.592Z,7.40
2024-02-03T15:43:27.532Z,7.30
2024-02-03T15:45:54.364Z,7.20
2024-02-03T15:48:22.235Z,7.20
2024-02-03T15:50:49.154Z,7.20
2024-02-03T15:53:16.364Z,8.90
2024-02-03T15:55:43.261Z,7.20
2024-02-03T15:58:10.625Z,7.10
2024-02-03T16:00:38.115Z,7.20
2024-02-03T16:03:08.417Z,7.20
2024-02-03T16:05:35.676Z,7.20
2024-02-03T16:08:02.564Z,7.30
2024-02-03T16:10:29.735Z,7.30
2024-02-03T16:12:56.801Z,7.30
2024-02-03T16:15:24.972Z,7.30
2024-02-03T16:17:52.132Z,7.30
2024-02-03T16:20:19.412Z,7.30
2024-02-03T16:22:46.904Z,7.20
2024-02-03T16:25:14.411Z,7.10
2024-02-03T16:27:44.751Z,7.20
2024-02-03T16:30:15.982Z,7.10
2024-02-03T16:32:43.500Z,7.00
2024-02-03T16:35:10.798Z,7.80
2024-02-03T16:37:37.853Z,6.80
2024-02-03T16:40:05.388Z,6.70
2024-02-03T16:42:32.569Z,6.60
2024-02-03T16:44:59.655Z,6.40
2024-02-03T16:47:26.525Z,6.30
2024-02-03T16:49:53.457Z,6.30
2024-02-03T16:52:20.234Z,6.20
2024-02-03T16:54:47.048Z,6.20
2024-02-03T16:57:13.945Z,6.00
2024-02-03T16:59:40.918Z,6.00
2024-02-03T17:02:08.130Z,6.00
2024-02-03T17:04:34.992Z,5.90
2024-02-03T17:07:02.624Z,5.80
2024-02-03T17:09:29.485Z,5.80
2024-02-03T17:11:56.365Z,5.80
2024-02-03T17:14:24.067Z,5.80
2024-02-03T17:16:50.844Z,5.70
2024-02-03T17:19:18.726Z,5.70
2024-02-03T17:21:46.135Z,5.80
2024-02-03T17:24:13.848Z,5.70
2024-02-03T17:26:57.160Z,5.60
2024-02-03T17:29:24.098Z,5.60
2024-02-03T17:31:50.959Z,5.50
2024-02-03T17:34:17.898Z,5.60
2024-02-03T17:36:44.740Z,4.50
2024-02-03T17:39:12.363Z,5.60
2024-02-03T17:41:39.303Z,5.70
2024-02-03T17:44:06.125Z,5.70
2024-02-03T17:46:33.003Z,5.70
2024-02-03T17:49:00.240Z,5.80
2024-02-03T17:51:27.343Z,5.80
2024-02-03T17:53:54.577Z,5.80
2024-02-03T17:56:21.326Z,5.90
2024-02-03T17:58:48.073Z,5.90
2024-02-03T18:01:15.084Z,5.90
2024-02-03T18:03:42.267Z,5.90
2024-02-03T18:06:09.275Z,5.90
2024-02-03T18:08:37.186Z,5.90
2024-02-03T18:11:04.280Z,5.90
2024-02-03T18:13:31.058Z,5.90
2024-02-03T18:15:57.985Z,5.90
2024-02-03T18:18:26.135Z,5.90
2024-02-03T18:20:53.115Z,6.00
2024-02-03T18:23:19.944Z,6.00
2024-02-03T18:25:46.779Z,6.20
2024-02-03T18:28:15.575Z,6.10
2024-02-03T18:30:43.835Z,6.10
2024-02-03T18:33:11.339Z,6.10
2024-02-03T18:35:38.324Z,6.20
2024-02-03T18:38:05.219Z,6.20
2024-02-03T18:40:32.341Z,6.20
2024-02-03T18:42:59.128Z,6.20
2024-02-03T18:45:26.540Z,6.20
2024-02-03T18:47:53.417Z,6.30
2024-02-03T18:50:20.465Z,6.30
2024-02-03T18:52:47.318Z,6.30
2024-02-03T18:55:14.353Z,6.40
2024-02-03T18:57:41.325Z,6.40
2024-02-03T19:00:08.902Z,6.40
2024-02-03T19:02:35.846Z,6.40
2024-02-03T19:05:03.660Z,6.30
2024-02-03T19:07:30.719Z,6.30
2024-02-03T19:09:57.700Z,6.30
2024-02-03T19:12:24.666Z,6.30
2024-02-03T19:14:51.503Z,6.30
2024-02-03T19:17:18.664Z,6.30
2024-02-03T19:19:45.665Z,6.30
2024-02-03T19:22:14.243Z,6.30
2024-02-03T19:24:41.150Z,6.20
2024-02-03T19:27:07.956Z,6.30
2024-02-03T19:29:34.764Z,6.20
2024-02-03T19:32:02.275Z,6.20
2024-02-03T19:34:33.456Z,6.20
2024-02-03T19:37:00.704Z,6.20
2024-02-03T19:39:27.935Z,6.20
2024-02-03T19:41:54.781Z,6.20
2024-02-03T19:44:21.584Z,6.20
2024-02-03T19:46:51.110Z,6.20
2024-02-03T19:49:19.040Z,6.20
2024-02-03T19:51:47.693Z,6.30
2024-02-03T19:54:14.587Z,6.30
2024-02-03T19:56:41.523Z,6.40
2024-02-03T19:59:11.338Z,6.40
2024-02-03T20:01:38.287Z,6.40
2024-02-03T20:04:06.109Z,6.40
2024-02-03T20:06:33.275Z,6.40
2024-02-03T20:09:00.114Z,6.40
2024-02-03T20:11:27.081Z,6.50
2024-02-03T20:13:53.999Z,6.40
2024-02-03T20:16:21.158Z,6.50
2024-02-03T20:18:48.355Z,6.30
2024-02-03T20:21:15.425Z,6.30
2024-02-03T20:23:42.513Z,6.40
2024-02-03T20:26:09.606Z,6.30
2024-02-03T20:28:38.115Z,6.30
2024-02-03T20:31:05.530Z,6.20
2024-02-03T20:33:34.223Z,6.20
2024-02-03T20:36:01.319Z,6.20
2024-02-03T20:38:28.324Z,6.10
2024-02-03T20:40:55.117Z,6.10
2024-02-03T20:43:24.522Z,6.00
2024-02-03T20:45:52.206Z,5.90
2024-02-03T20:48:19.733Z,5.80
2024-02-03T20:50:49.236Z,5.80
2024-02-03T20:53:16.124Z,5.70
2024-02-03T20:55:44.131Z,5.60
2024-02-03T20:58:14.172Z,5.50
2024-02-03T21:00:42.574Z,5.50
2024-02-03T21:03:10.091Z,5.50
2024-02-03T21:05:37.037Z,5.50
2024-02-03T21:08:06.567Z,5.40
2024-02-03T21:10:34.104Z,5.50
2024-02-03T21:13:01.441Z,5.50
2024-02-03T21:15:28.421Z,5.50
2024-02-03T21:17:55.452Z,5.50
2024-02-03T21:20:22.581Z,5.40
2024-02-03T21:22:49.679Z,5.50
2024-02-03T21:25:16.640Z,5.50
2024-02-03T21:27:43.600Z,5.60
2024-02-03T21:30:11.585Z,5.60
2024-02-03T21:32:38.621Z,5.70
2024-02-03T21:35:06.387Z,5.70
2024-02-03T21:37:33.439Z,5.60
2024-02-03T21:40:00.686Z,5.60
2024-02-03T21:42:28.548Z,5.70
2024-02-03T21:44:58.473Z,5.70
2024-02-03T21:47:25.320Z,5.70
2024-02-03T21:49:52.248Z,5.70
2024-02-03T21:52:24.103Z,5.70
2024-02-03T21:54:52.060Z,5.70
2024-02-03T21:57:18.889Z,5.70
2024-02-03T21:59:49.016Z,5.60
2024-02-03T22:02:16.010Z,5.60
2024-02-03T22:04:43.044Z,5.60
2024-02-03T22:07:10.309Z,5.50
2024-02-03T22:09:38.521Z,5.50
2024-02-03T22:12:05.552Z,5.50
2024-02-03T22:14:33.719Z,5.50
2024-02-03T22:17:00.693Z,5.50
2024-02-03T22:19:30.880Z,5.50
2024-02-03T22:21:59.120Z,5.50
2024-02-03T22:24:26.163Z,5.50
2024-02-03T22:26:55.289Z,5.50
2024-02-03T22:29:28.765Z,5.50
2024-02-03T22:31:58.319Z,5.50
2024-02-03T22:34:25.729Z,5.60
2024-02-03T22:36:52.682Z,5.60
2024-02-03T22:39:19.714Z,5.60
2024-02-03T22:41:46.664Z,5.60
2024-02-03T22:44:13.459Z,5.60
2024-02-03T22:46:41.357Z,5.60
2024-02-03T22:49:08.286Z,5.60
2024-02-03T22:51:35.463Z,5.60
2024-02-03T22:54:02.327Z,5.60
2024-02-03T22:56:29.059Z,5.60
2024-02-03T22:58:56.009Z,5.70
2024-02-03T23:01:23.423Z,5.70
2024-02-03T23:03:50.511Z,5.70
2024-02-03T23:06:17.725Z,5.70
2024-02-03T23:08:45.851Z,5.70
2024-02-03T23:11:12.983Z,5.70
2024-02-03T23:13:39.945Z,5.70
2024-02-03T23:16:32.999Z,5.70
2024-02-03T23:19:00.018Z,5.70
2024-02-03T23:21:28.225Z,5.70
2024-02-03T23:23:55.262Z,5.60
2024-02-03T23:26:22.686Z,5.50
2024-02-03T23:28:49.459Z,5.50
2024-02-03T23:31:16.349Z,5.50
2024-02-03T23:33:43.228Z,5.50
2024-02-03T23:36:11.052Z,5.40
2024-02-03T23:38:37.864Z,5.40
2024-02-03T23:41:04.869Z,5.50
2024-02-03T23:43:31.819Z,5.50
2024-02-03T23:45:58.657Z,5.50
2024-02-03T23:48:25.495Z,5.50
2024-02-03T23:50:52.396Z,5.50
2024-02-03T23:53:19.112Z,5.50
2024-02-03T23:55:45.871Z,5.50
2024-02-03T23:58:13.433Z,5.30
